createdAt,value
2017-09-12T00:00:54.003Z,12.43
2017-09-12T00:03:21.655Z,13.00
2017-09-12T00:05:49.230Z,11.60
2017-09-12T00:08:16.835Z,12.10
2017-09-12T00:10:44.462Z,13.73
2017-09-12T00:13:12.043Z,12.80
2017-09-12T00:15:40.193Z,12.80
2017-09-12T00:18:07.865Z,13.67
2017-09-12T00:20:35.483Z,12.00
2017-09-12T00:23:03.080Z,13.07
2017-09-12T00:25:30.682Z,12.50
2017-09-12T00:27:59.010Z,13.30
2017-09-12T00:30:26.603Z,16.67
2017-09-12T00:32:54.206Z,11.67
2017-09-12T00:35:21.810Z,12.40
2017-09-12T00:37:49.390Z,13.30
2017-09-12T00:40:17.022Z,12.30
2017-09-12T00:42:44.622Z,13.40
2017-09-12T00:45:12.230Z,11.70
2017-09-12T00:47:39.868Z,12.10
2017-09-12T00:50:07.454Z,12.13
2017-09-12T00:52:35.058Z,12.67
2017-09-12T00:55:02.718Z,11.80
2017-09-12T00:57:30.391Z,12.63
2017-09-12T00:59:58.058Z,14.43
2017-09-12T01:02:25.709Z,13.97
2017-09-12T01:04:53.373Z,12.20
2017-09-12T01:07:20.982Z,13.33
2017-09-12T01:09:48.642Z,11.93
2017-09-12T01:12:16.262Z,11.67
2017-09-12T01:14:43.929Z,12.10
2017-09-12T01:17:11.574Z,11.50
2017-09-12T01:19:39.214Z,11.73
2017-09-12T01:22:06.874Z,12.27
2017-09-12T01:24:34.550Z,12.20
2017-09-12T01:27:02.218Z,11.97
2017-09-12T01:29:29.937Z,12.57
2017-09-12T01:31:58.062Z,12.40
2017-09-12T01:34:25.982Z,11.37
2017-09-12T01:36:53.598Z,12.40
2017-09-12T01:39:21.218Z,11.23
2017-09-12T01:41:48.802Z,11.63
2017-09-12T01:44:16.442Z,11.53
2017-09-12T01:46:44.091Z,11.63
2017-09-12T01:49:18.675Z,11.90
2017-09-12T01:51:56.053Z,11.00
2017-09-12T01:54:32.245Z,11.53
2017-09-12T01:57:13.032Z,10.90
2017-09-12T01:59:49.597Z,11.40
2017-09-12T02:02:17.694Z,11.43
2017-09-12T02:04:46.048Z,11.53
2017-09-12T02:07:13.630Z,11.30
2017-09-12T02:09:42.042Z,12.53
2017-09-12T02:12:09.647Z,11.80
2017-09-12T02:14:37.990Z,13.03
2017-09-12T02:17:05.618Z,12.20
2017-09-12T02:19:33.219Z,10.93
2017-09-12T02:22:01.427Z,10.53
2017-09-12T02:24:29.027Z,10.80
2017-09-12T02:26:56.626Z,10.53
2017-09-12T02:29:24.798Z,10.63
2017-09-12T02:31:52.392Z,10.80
2017-09-12T02:34:20.739Z,10.40
2017-09-12T02:36:48.329Z,10.37
2017-09-12T02:39:15.966Z,9.93
2017-09-12T02:41:43.570Z,10.13
2017-09-12T02:44:11.142Z,11.67
2017-09-12T02:46:38.791Z,10.57
2017-09-12T02:49:06.362Z,11.10
2017-09-12T02:51:33.957Z,10.93
2017-09-12T02:54:01.595Z,11.90
2017-09-12T02:56:29.397Z,11.10
2017-09-12T02:58:56.973Z,10.40
2017-09-12T03:01:24.599Z,11.00
2017-09-12T03:03:52.193Z,10.63
2017-09-12T03:06:19.767Z,10.20
2017-09-12T03:08:48.126Z,10.30
2017-09-12T03:11:15.716Z,9.83
2017-09-12T03:13:43.312Z,10.13
2017-09-12T03:16:10.935Z,10.53
2017-09-12T03:18:38.724Z,11.40
2017-09-12T03:21:06.323Z,10.70
2017-09-12T03:23:33.926Z,11.70
2017-09-12T03:26:01.519Z,10.00
2017-09-12T03:28:29.115Z,10.83
2017-09-12T03:30:56.745Z,9.70
2017-09-12T03:33:24.342Z,10.10
2017-09-12T03:35:51.943Z,11.00
2017-09-12T03:38:19.569Z,10.90
2017-09-12T03:40:47.180Z,10.80
2017-09-12T03:43:14.753Z,9.80
2017-09-12T03:45:42.354Z,10.77
2017-09-12T03:48:09.934Z,9.80
2017-09-12T03:50:37.551Z,10.20
2017-09-12T03:53:05.190Z,10.60
2017-09-12T03:55:32.840Z,9.53
2017-09-12T03:58:00.427Z,9.40
2017-09-12T04:00:28.094Z,9.73
2017-09-12T04:02:55.771Z,9.77
2017-09-12T04:05:23.435Z,9.33
2017-09-12T04:07:51.106Z,9.50
2017-09-12T04:10:18.766Z,9.90
2017-09-12T04:12:47.199Z,10.40
2017-09-12T04:15:14.875Z,10.60
2017-09-12T04:17:42.586Z,10.50
2017-09-12T04:20:10.218Z,9.30
2017-09-12T04:22:37.907Z,10.30
2017-09-12T04:25:05.607Z,9.70
2017-09-12T04:27:33.286Z,10.90
2017-09-12T04:30:00.957Z,9.83
2017-09-12T04:32:28.590Z,9.40
2017-09-12T04:34:56.230Z,8.43
2017-09-12T04:37:23.874Z,8.77
2017-09-12T04:39:52.250Z,10.10
2017-09-12T04:42:19.842Z,9.50
2017-09-12T04:44:48.327Z,9.30
2017-09-12T04:47:15.939Z,8.77
2017-09-12T04:49:43.558Z,9.10
2017-09-12T04:52:11.207Z,8.70
2017-09-12T04:54:39.122Z,9.30
2017-09-12T04:57:06.758Z,9.50
2017-09-12T04:59:34.423Z,8.50
2017-09-12T05:02:02.087Z,8.50
2017-09-12T05:04:29.962Z,9.60
2017-09-12T05:06:57.599Z,9.70
2017-09-12T05:09:25.179Z,9.70
2017-09-12T05:11:53.427Z,11.30
2017-09-12T05:14:21.306Z,9.07
2017-09-12T05:16:48.927Z,10.33
2017-09-12T05:19:17.030Z,10.63
2017-09-12T05:21:44.626Z,15.87
2017-09-12T05:24:12.214Z,10.20
2017-09-12T05:26:39.814Z,12.60
2017-09-12T05:29:07.441Z,13.53
2017-09-12T05:31:35.049Z,12.37
2017-09-12T05:34:02.639Z,8.13
2017-09-12T05:36:30.266Z,11.07
2017-09-12T05:39:00.472Z,10.07
2017-09-12T05:41:29.542Z,8.83
2017-09-12T05:43:57.159Z,6.57
2017-09-12T05:46:24.755Z,7.93
2017-09-12T05:48:52.354Z,14.30
2017-09-12T05:51:20.031Z,14.43
2017-09-12T05:53:47.610Z,19.03
2017-09-12T05:56:15.251Z,13.80
2017-09-12T05:58:42.904Z,13.93
2017-09-12T06:01:10.490Z,12.20
2017-09-12T06:03:38.058Z,17.03
2017-09-12T06:06:05.723Z,12.50
2017-09-12T06:08:33.326Z,13.07
2017-09-12T06:11:00.926Z,10.63
2017-09-12T06:13:28.558Z,15.57
2017-09-12T06:15:56.202Z,12.87
2017-09-12T06:18:23.806Z,8.30
2017-09-12T06:20:51.441Z,24.90
2017-09-12T06:23:19.311Z,8.80
2017-09-12T06:25:46.915Z,18.47
2017-09-12T06:28:14.515Z,11.23
2017-09-12T06:30:42.084Z,10.80
2017-09-12T06:33:09.653Z,8.80
2017-09-12T06:35:37.250Z,13.13
2017-09-12T06:38:04.850Z,8.47
2017-09-12T06:40:32.419Z,14.77
2017-09-12T06:43:00.038Z,7.83
2017-09-12T06:45:27.607Z,11.37
2017-09-12T06:47:55.178Z,12.73
2017-09-12T06:50:22.771Z,12.70
2017-09-12T06:52:50.339Z,9.93
2017-09-12T06:55:17.926Z,9.90
2017-09-12T06:57:45.546Z,9.30
2017-09-12T07:00:13.182Z,7.07
2017-09-12T07:02:40.791Z,8.63
2017-09-12T07:05:08.390Z,8.50
2017-09-12T07:07:35.988Z,6.93
2017-09-12T07:10:03.603Z,9.17
2017-09-12T07:12:32.006Z,7.33
2017-09-12T07:14:59.603Z,7.00
2017-09-12T07:17:27.175Z,10.03
2017-09-12T07:19:54.802Z,8.47
2017-09-12T07:22:22.378Z,6.87
2017-09-12T07:24:49.946Z,8.50
2017-09-12T07:27:17.566Z,8.13
2017-09-12T07:29:45.139Z,8.43
2017-09-12T07:32:12.731Z,9.50
2017-09-12T07:34:40.335Z,8.10
2017-09-12T07:37:08.371Z,7.57
2017-09-12T07:39:35.938Z,5.00
2017-09-12T07:42:03.559Z,8.77
2017-09-12T07:44:31.199Z,7.47
2017-09-12T07:46:58.771Z,5.13
2017-09-12T07:49:26.370Z,11.23
2017-09-12T07:51:53.966Z,5.07
2017-09-12T07:54:21.550Z,6.70
2017-09-12T07:56:49.170Z,6.67
2017-09-12T07:59:16.779Z,9.10
2017-09-12T08:01:44.370Z,8.90
2017-09-12T08:04:12.746Z,6.27
2017-09-12T08:06:40.316Z,7.23
2017-09-12T08:09:09.291Z,7.50
2017-09-12T08:11:36.890Z,4.00
2017-09-12T08:14:05.192Z,6.30
2017-09-12T08:16:32.810Z,4.17
2017-09-12T08:19:00.451Z,6.37
2017-09-12T08:21:28.038Z,8.40
2017-09-12T08:23:56.407Z,8.77
2017-09-12T08:26:24.027Z,7.33
2017-09-12T08:28:51.615Z,7.70
2017-09-12T08:31:19.211Z,6.87
2017-09-12T08:33:46.807Z,5.30
2017-09-12T08:36:14.401Z,5.97
2017-09-12T08:38:41.970Z,7.23
2017-09-12T08:41:09.595Z,5.63
2017-09-12T08:43:37.195Z,6.00
2017-09-12T08:46:05.559Z,4.40
2017-09-12T08:48:33.159Z,6.27
2017-09-12T08:51:01.354Z,6.80
2017-09-12T08:53:28.949Z,5.40
2017-09-12T08:55:56.554Z,6.93
2017-09-12T08:58:24.146Z,6.50
2017-09-12T09:00:51.742Z,4.83
2017-09-12T09:03:20.022Z,5.30
2017-09-12T09:05:47.610Z,5.07
2017-09-12T09:08:15.226Z,10.80
2017-09-12T09:10:42.867Z,5.90
2017-09-12T09:13:10.485Z,5.77
2017-09-12T09:15:38.063Z,4.57
2017-09-12T09:18:05.698Z,4.20
2017-09-12T09:20:34.054Z,5.80
2017-09-12T09:23:01.654Z,4.63
2017-09-12T09:25:30.014Z,4.93
2017-09-12T09:27:57.578Z,5.43
2017-09-12T09:30:25.977Z,6.40
2017-09-12T09:32:53.603Z,5.47
2017-09-12T09:35:21.199Z,6.03
2017-09-12T09:37:48.795Z,7.07
2017-09-12T09:40:16.398Z,5.13
2017-09-12T09:42:43.971Z,5.23
2017-09-12T09:45:11.564Z,7.33
2017-09-12T09:47:40.253Z,4.13
2017-09-12T09:50:07.822Z,6.30
2017-09-12T09:52:35.451Z,5.20
2017-09-12T09:55:03.080Z,4.13
2017-09-12T09:57:30.678Z,6.00
2017-09-12T09:59:58.259Z,4.53
2017-09-12T10:02:25.885Z,5.00
2017-09-12T10:04:53.488Z,6.10
2017-09-12T10:07:21.128Z,5.70
2017-09-12T10:09:49.296Z,5.67
2017-09-12T10:12:16.869Z,7.23
2017-09-12T10:14:44.463Z,6.43
2017-09-12T10:17:12.084Z,4.30
2017-09-12T10:19:39.675Z,6.43
2017-09-12T10:22:07.279Z,4.43
2017-09-12T10:24:34.879Z,5.30
2017-09-12T10:27:02.471Z,4.43
2017-09-12T10:29:30.058Z,6.90
2017-09-12T10:31:57.655Z,6.83
2017-09-12T10:34:25.223Z,8.03
2017-09-12T10:36:52.811Z,6.50
2017-09-12T10:39:20.446Z,7.80
2017-09-12T10:41:48.023Z,7.83
2017-09-12T10:44:15.663Z,5.60
2017-09-12T10:46:43.287Z,8.27
2017-09-12T10:49:10.883Z,9.63
2017-09-12T10:51:38.487Z,7.50
2017-09-12T10:54:06.115Z,6.90
2017-09-12T10:56:33.685Z,7.70
2017-09-12T10:59:01.250Z,7.53
2017-09-12T11:01:28.858Z,6.87
2017-09-12T11:03:56.450Z,6.90
2017-09-12T11:06:24.055Z,7.77
2017-09-12T11:08:51.698Z,7.03
2017-09-12T11:11:19.355Z,8.03
2017-09-12T11:13:47.000Z,9.07
2017-09-12T11:16:14.674Z,5.43
2017-09-12T11:18:42.362Z,6.40
2017-09-12T11:21:10.231Z,5.60
2017-09-12T11:23:37.859Z,5.70
2017-09-12T11:26:05.452Z,5.73
2017-09-12T11:28:33.025Z,8.60
2017-09-12T11:31:00.893Z,7.57
2017-09-12T11:33:29.061Z,7.07
2017-09-12T11:35:56.623Z,7.37
2017-09-12T11:38:24.243Z,6.93
2017-09-12T11:40:51.826Z,6.73
2017-09-12T11:43:19.398Z,7.07
2017-09-12T11:45:47.018Z,6.60
2017-09-12T11:48:15.283Z,5.10
2017-09-12T11:50:42.891Z,6.70
2017-09-12T11:53:10.491Z,6.70
2017-09-12T11:55:56.078Z,5.77
2017-09-12T11:58:25.332Z,6.63
2017-09-12T12:00:53.555Z,6.57
2017-09-12T12:03:21.133Z,6.47
2017-09-12T12:05:48.726Z,6.00
2017-09-12T12:08:16.539Z,5.40
2017-09-12T12:10:44.106Z,6.47
2017-09-12T12:13:11.699Z,6.43
2017-09-12T12:15:39.307Z,6.70
2017-09-12T12:18:06.903Z,6.53
2017-09-12T12:20:34.502Z,7.03
2017-09-12T12:23:02.096Z,6.03
2017-09-12T12:25:29.702Z,5.70
2017-09-12T12:27:57.334Z,5.83
2017-09-12T12:30:24.927Z,6.00
2017-09-12T12:32:52.532Z,5.90
2017-09-12T12:35:20.131Z,6.23
2017-09-12T12:37:47.698Z,6.10
2017-09-12T12:40:15.295Z,7.20
2017-09-12T12:42:42.935Z,6.97
2017-09-12T12:45:10.526Z,4.13
2017-09-12T12:47:38.108Z,4.17
2017-09-12T12:50:05.772Z,7.30
2017-09-12T12:52:33.374Z,5.47
2017-09-12T12:55:01.490Z,4.23
2017-09-12T12:57:29.129Z,9.67
2017-09-12T12:59:56.699Z,5.90
2017-09-12T13:02:24.287Z,4.67
2017-09-12T13:04:51.882Z,5.30
2017-09-12T13:07:19.482Z,4.70
2017-09-12T13:09:47.058Z,5.90
2017-09-12T13:12:14.670Z,4.83
2017-09-12T13:14:42.267Z,10.50
2017-09-12T13:17:09.906Z,4.43
2017-09-12T13:19:37.526Z,5.70
2017-09-12T13:22:05.095Z,5.73
2017-09-12T13:24:32.700Z,5.37
2017-09-12T13:27:00.310Z,5.67
2017-09-12T13:29:27.903Z,8.53
2017-09-12T13:31:55.503Z,6.10
2017-09-12T13:34:23.098Z,6.20
2017-09-12T13:36:50.692Z,5.10
2017-09-12T13:39:18.291Z,4.43
2017-09-12T13:41:46.035Z,5.37
2017-09-12T13:44:13.650Z,4.90
2017-09-12T13:46:41.262Z,6.60
2017-09-12T13:49:08.882Z,5.93
2017-09-12T13:51:37.030Z,4.37
2017-09-12T13:54:05.573Z,4.77
2017-09-12T13:56:33.446Z,5.60
2017-09-12T13:59:01.162Z,6.20
2017-09-12T14:01:28.758Z,3.93
2017-09-12T14:03:56.354Z,4.80
2017-09-12T14:06:23.946Z,3.67
2017-09-12T14:08:51.532Z,4.33
2017-09-12T14:11:19.162Z,3.83
2017-09-12T14:13:47.502Z,3.80
2017-09-12T14:16:15.075Z,4.20
2017-09-12T14:18:42.708Z,6.00
2017-09-12T14:21:10.298Z,4.93
2017-09-12T14:23:37.898Z,4.63
2017-09-12T14:26:05.522Z,3.80
2017-09-12T14:28:33.095Z,6.17
2017-09-12T14:31:00.659Z,5.27
2017-09-12T14:33:28.252Z,6.93
2017-09-12T14:35:56.774Z,4.17
2017-09-12T14:38:24.371Z,3.70
2017-09-12T14:40:52.014Z,5.33
2017-09-12T14:43:19.588Z,3.97
2017-09-12T14:45:47.159Z,4.53
2017-09-12T14:48:14.827Z,4.53
2017-09-12T14:50:42.405Z,3.87
2017-09-12T14:53:09.996Z,4.63
2017-09-12T14:55:37.598Z,7.10
2017-09-12T14:58:05.206Z,4.47
2017-09-12T15:00:32.779Z,4.00
2017-09-12T15:03:00.410Z,4.03
2017-09-12T15:05:28.003Z,4.23
2017-09-12T15:07:55.603Z,4.67
2017-09-12T15:10:23.227Z,4.90
2017-09-12T15:12:51.567Z,5.40
2017-09-12T15:15:19.135Z,3.90
2017-09-12T15:17:46.735Z,5.07
2017-09-12T15:20:14.330Z,3.70
2017-09-12T15:22:41.926Z,5.40
2017-09-12T15:25:09.555Z,3.87
2017-09-12T15:27:37.131Z,4.47
2017-09-12T15:30:04.755Z,4.63
2017-09-12T15:32:32.384Z,4.00
2017-09-12T15:35:00.722Z,4.00
2017-09-12T15:37:28.294Z,4.00
2017-09-12T15:39:55.920Z,4.07
2017-09-12T15:42:23.490Z,3.53
2017-09-12T15:44:51.078Z,3.47
2017-09-12T15:47:18.674Z,3.23
2017-09-12T15:49:46.263Z,4.43
2017-09-12T15:52:13.866Z,3.53
2017-09-12T15:54:41.474Z,3.80
2017-09-12T15:57:09.067Z,4.20
2017-09-12T15:59:37.391Z,5.77
2017-09-12T16:02:04.986Z,3.80
2017-09-12T16:04:32.547Z,3.60
2017-09-12T16:07:00.134Z,3.37
2017-09-12T16:09:28.726Z,6.03
2017-09-12T16:11:56.899Z,4.43
2017-09-12T16:14:24.471Z,4.67
2017-09-12T16:16:52.066Z,4.60
2017-09-12T16:19:19.636Z,4.10
2017-09-12T16:21:47.227Z,4.60
2017-09-12T16:24:14.848Z,5.03
2017-09-12T16:26:42.418Z,3.67
2017-09-12T16:29:10.011Z,4.40
2017-09-12T16:31:37.635Z,4.33
2017-09-12T16:34:05.213Z,4.27
2017-09-12T16:36:32.811Z,4.20
2017-09-12T16:39:00.411Z,4.47
2017-09-12T16:41:28.003Z,4.03
2017-09-12T16:43:55.571Z,3.77
2017-09-12T16:46:23.191Z,4.00
2017-09-12T16:48:50.787Z,4.27
2017-09-12T16:51:18.361Z,4.27
2017-09-12T16:53:45.995Z,3.90
2017-09-12T16:56:14.072Z,2.73
2017-09-12T16:58:42.267Z,4.50
2017-09-12T17:01:09.891Z,2.03
2017-09-12T17:03:37.489Z,3.63
2017-09-12T17:06:05.071Z,1.40
2017-09-12T17:08:32.666Z,1.20
2017-09-12T17:11:00.259Z,2.90
2017-09-12T17:13:27.831Z,2.60
2017-09-12T17:15:59.871Z,1.97
2017-09-12T17:18:28.438Z,1.30
2017-09-12T17:20:59.271Z,1.30
2017-09-12T17:23:27.083Z,2.10
2017-09-12T17:25:54.675Z,1.80
2017-09-12T17:28:22.312Z,1.60
2017-09-12T17:30:50.706Z,2.53
2017-09-12T17:33:18.965Z,3.57
2017-09-12T17:35:46.541Z,1.53
2017-09-12T17:38:14.142Z,3.10
2017-09-12T17:40:41.713Z,1.60
2017-09-12T17:43:09.307Z,2.50
2017-09-12T17:45:36.923Z,1.73
2017-09-12T17:48:04.532Z,1.60
2017-09-12T17:50:32.131Z,2.40
2017-09-12T17:55:32.821Z,1.83
2017-09-12T17:58:01.410Z,1.40
2017-09-12T18:00:29.015Z,2.30
2017-09-12T18:02:56.639Z,2.10
2017-09-12T18:05:24.264Z,2.73
2017-09-12T18:07:51.872Z,2.43
2017-09-12T18:10:20.423Z,2.00
2017-09-12T18:12:48.017Z,3.50
2017-09-12T18:18:04.691Z,2.90
2017-09-12T18:20:43.740Z,1.37
2017-09-12T18:23:13.343Z,2.67
2017-09-12T18:25:41.725Z,4.70
2017-09-12T18:28:09.741Z,2.03
2017-09-12T18:30:38.035Z,1.23
2017-09-12T18:33:06.720Z,1.97
2017-09-12T18:35:36.333Z,2.00
2017-09-12T18:38:05.757Z,1.97
2017-09-12T18:40:33.556Z,1.80
2017-09-12T18:43:02.109Z,1.57
2017-09-12T18:45:30.366Z,4.20
2017-09-12T18:47:58.527Z,2.83
2017-09-12T18:50:27.030Z,2.13
2017-09-12T18:52:54.658Z,4.37
2017-09-12T18:55:22.558Z,1.67
2017-09-12T18:57:50.443Z,2.63
2017-09-12T19:00:18.043Z,3.67
2017-09-12T19:02:47.260Z,3.00
2017-09-12T19:05:14.971Z,1.57
2017-09-12T19:07:44.635Z,2.40
2017-09-12T19:10:17.538Z,2.40
2017-09-12T19:12:45.193Z,1.97
2017-09-12T19:15:14.375Z,3.23
2017-09-12T19:17:44.242Z,5.53
2017-09-12T19:20:12.548Z,5.53
2017-09-12T19:22:40.133Z,2.60
2017-09-12T19:25:07.730Z,2.60
2017-09-12T19:27:36.385Z,2.33
2017-09-12T19:30:04.049Z,5.83
2017-09-12T19:32:31.639Z,6.30
2017-09-12T19:35:00.135Z,3.03
2017-09-12T19:37:28.572Z,2.50
2017-09-12T19:39:56.285Z,4.93
2017-09-12T19:42:24.210Z,6.43
2017-09-12T19:44:53.429Z,2.23
2017-09-12T19:47:21.295Z,4.30
2017-09-12T19:49:50.540Z,2.20
2017-09-12T19:52:18.980Z,3.73
2017-09-12T19:57:20.044Z,2.93
2017-09-12T19:59:48.465Z,2.73
2017-09-12T20:02:16.153Z,1.87
2017-09-12T20:04:45.941Z,7.23
2017-09-12T20:07:13.911Z,17.80
2017-09-12T20:09:43.490Z,9.20
2017-09-12T20:12:11.193Z,7.93
2017-09-12T20:14:38.985Z,6.07
2017-09-12T20:17:06.903Z,4.53
2017-09-12T20:19:36.546Z,7.10
2017-09-12T20:22:04.534Z,4.03
2017-09-12T20:24:32.812Z,5.63
2017-09-12T20:27:22.046Z,6.00
2017-09-12T20:29:50.241Z,5.83
2017-09-12T20:32:17.853Z,5.50
2017-09-12T20:34:46.134Z,5.47
2017-09-12T20:37:17.685Z,8.00
2017-09-12T20:39:47.483Z,7.20
2017-09-12T20:42:25.108Z,6.30
2017-09-12T20:44:54.566Z,6.10
2017-09-12T20:47:22.264Z,6.37
2017-09-12T20:49:50.751Z,6.43
2017-09-12T20:52:20.167Z,5.53
2017-09-12T20:54:48.088Z,8.40
2017-09-12T20:57:16.527Z,6.07
2017-09-12T20:59:44.344Z,5.77
2017-09-12T21:02:12.836Z,6.30
2017-09-12T21:04:41.502Z,8.13
2017-09-12T21:07:09.871Z,5.17
2017-09-12T21:09:37.540Z,7.50
2017-09-12T21:12:06.513Z,6.20
2017-09-12T21:14:34.599Z,5.43
2017-09-12T21:17:05.299Z,10.50
2017-09-12T21:19:33.633Z,12.00
2017-09-12T21:22:03.350Z,10.00
2017-09-12T21:24:31.398Z,6.37
2017-09-12T21:27:00.040Z,10.70
2017-09-12T21:29:27.801Z,7.60
2017-09-12T21:31:57.078Z,6.50
2017-09-12T21:34:26.298Z,4.67
2017-09-12T21:36:54.785Z,6.70
2017-09-12T21:39:23.773Z,6.57
2017-09-12T21:41:51.748Z,5.13
2017-09-12T21:44:20.418Z,8.10
2017-09-12T21:46:48.031Z,5.50
2017-09-12T21:49:16.015Z,6.03
2017-09-12T21:51:44.733Z,6.70
2017-09-12T21:54:13.127Z,5.33
2017-09-12T21:56:41.691Z,5.13
2017-09-12T21:59:09.855Z,5.30
2017-09-12T22:01:37.503Z,6.83
2017-09-12T22:04:05.510Z,5.00
2017-09-12T22:06:33.127Z,5.47
2017-09-12T22:09:00.959Z,4.70
2017-09-12T22:11:29.152Z,4.30
2017-09-12T22:13:56.771Z,3.93
2017-09-12T22:16:24.632Z,5.07
2017-09-12T22:18:52.259Z,3.10
2017-09-12T22:21:19.840Z,5.50
2017-09-12T22:23:47.932Z,3.67
2017-09-12T22:26:15.554Z,8.30
2017-09-12T22:28:48.334Z,5.67
2017-09-12T22:31:15.935Z,3.50
2017-09-12T22:33:43.531Z,3.73
2017-09-12T22:36:12.094Z,7.00
2017-09-12T22:38:40.010Z,5.03
2017-09-12T22:41:07.599Z,4.33
2017-09-12T22:43:35.187Z,3.40
2017-09-12T22:46:02.798Z,2.80
2017-09-12T22:48:30.366Z,3.70
2017-09-12T22:50:58.000Z,3.30
2017-09-12T22:53:26.740Z,3.07
2017-09-12T22:55:54.346Z,5.10
2017-09-12T22:58:21.906Z,3.43
2017-09-12T23:00:51.048Z,3.23
2017-09-12T23:03:18.643Z,2.33
2017-09-12T23:05:46.234Z,4.17
2017-09-12T23:08:13.898Z,3.93
2017-09-12T23:10:41.467Z,3.07
2017-09-12T23:13:09.059Z,2.10
2017-09-12T23:15:36.658Z,4.53
2017-09-12T23:18:04.247Z,2.43
2017-09-12T23:20:31.831Z,3.07
2017-09-12T23:22:59.446Z,2.13
2017-09-12T23:25:27.011Z,4.10
2017-09-12T23:27:55.338Z,2.57
2017-09-12T23:30:22.955Z,2.77
2017-09-12T23:32:50.543Z,2.40
2017-09-12T23:35:18.122Z,1.77
2017-09-12T23:37:45.738Z,2.27
2017-09-12T23:40:13.354Z,1.77
2017-09-12T23:42:40.921Z,3.53
2017-09-12T23:45:08.519Z,3.47
2017-09-12T23:47:36.139Z,2.43
2017-09-12T23:50:04.083Z,2.97
2017-09-12T23:52:31.698Z,2.53
2017-09-12T23:54:59.273Z,2.20
2017-09-12T23:57:26.863Z,3.00
2017-09-12T23:59:54.502Z,4.17
